Time;durP1;ratioP1;P1;durP2;ratioP2;P2;SDS_P1;SDS_P2;PMS_P1;PMS_P2;Temp;Humidity;BMP_temperature;BMP_pressure;BME280_temperature;BME280_humidity;BME280_pressure;Samples;Min_cycle;Max_cycle;Signal;HPM_P1;HPM_P2
2021/06/02 00:00:13;;;;;;;;;13.25;12.50;;;;;10.31;87.29;99880.97;3527006;40;14056;-53
2021/06/02 00:02:54;;;;;;;;;15.75;12.00;;;;;10.37;86.91;99881.59;3521520;40;14074;-53
2021/06/02 00:05:23;;;;;;;;;17.00;12.75;;;;;10.26;87.13;99874.13;3538502;40;14254;-54
2021/06/02 00:07:51;;;;;;;;;15.00;12.00;;;;;10.13;87.96;99873.94;3535472;40;14186;-52
2021/06/02 00:10:20;;;;;;;;;16.25;13.25;;;;;10.16;88.08;99884.50;3533660;40;14295;-53
2021/06/02 00:12:48;;;;;;;;;16.50;11.25;;;;;10.31;87.08;99883.66;3526765;40;14301;-52
2021/06/02 00:15:16;;;;;;;;;15.75;12.00;;;;;10.36;86.62;99883.41;3526818;40;14126;-50
2021/06/02 00:17:44;;;;;;;;;10.75;8.50;;;;;10.47;85.30;99877.41;3525783;40;14650;-53
2021/06/02 00:20:12;;;;;;;;;14.25;12.50;;;;;10.35;86.23;99883.47;3526989;40;14273;-52
2021/06/02 00:22:40;;;;;;;;;14.75;11.50;;;;;10.57;83.87;99888.50;3543748;40;14095;-53
2021/06/02 00:25:09;;;;;;;;;14.75;13.00;;;;;10.23;85.87;99883.22;3526458;40;14060;-52
2021/06/02 00:27:40;;;;;;;;;14.00;13.00;;;;;10.27;84.51;99883.91;3527207;40;14085;-54
2021/06/02 00:30:12;;;;;;;;;13.00;9.25;;;;;10.35;85.58;99886.16;3526652;40;14093;-54
2021/06/02 00:32:41;;;;;;;;;17.50;13.00;;;;;10.44;83.63;99888.34;3534277;40;14085;-54
2021/06/02 00:35:11;;;;;;;;;17.50;12.00;;;;;10.28;85.52;99889.22;3550654;40;14124;-53
2021/06/02 00:37:40;;;;;;;;;13.50;11.00;;;;;10.02;86.15;99887.13;3534459;40;14119;-54
2021/06/02 00:40:17;;;;;;;;;12.75;11.00;;;;;9.52;88.44;99882.72;3525618;40;14611;-53
2021/06/02 00:42:45;;;;;;;;;16.50;15.00;;;;;9.59;89.09;99876.09;3533703;40;14194;-54
2021/06/02 00:45:16;;;;;;;;;11.25;10.25;;;;;9.67;90.07;99881.88;3526856;40;14124;-53
2021/06/02 00:47:45;;;;;;;;;11.25;9.50;;;;;9.68;88.94;99886.28;3527708;40;14083;-54
2021/06/02 00:50:13;;;;;;;;;16.00;12.00;;;;;9.44;89.75;99889.34;3530329;40;14583;-56
2021/06/02 00:52:42;;;;;;;;;13.50;12.00;;;;;9.28;90.60;99883.09;3533601;40;14130;-52
2021/06/02 00:55:09;;;;;;;;;14.50;12.00;;;;;8.83;91.53;99884.53;3533661;40;14163;-54
2021/06/02 00:57:45;;;;;;;;;15.75;12.75;;;;;9.22;91.63;99886.09;3526784;40;10935;-54
2021/06/02 01:00:13;;;;;;;;;15.00;12.00;;;;;9.38;90.30;99887.00;3527234;40;14148;-54
2021/06/02 01:02:48;;;;;;;;;15.75;10.25;;;;;9.36;89.41;99880.84;3536635;40;14329;-53
2021/06/02 01:05:20;;;;;;;;;16.75;11.75;;;;;9.48;89.47;99886.50;3537893;40;14085;-54
2021/06/02 01:07:52;;;;;;;;;12.00;11.00;;;;;9.30;90.31;99881.19;3533178;40;14079;-51
2021/06/02 01:10:21;;;;;;;;;16.25;13.25;;;;;9.08;90.39;99892.16;3532780;40;14100;-54
2021/06/02 01:12:51;;;;;;;;;11.75;11.25;;;;;8.71;91.98;99895.88;3528938;40;10762;-51
2021/06/02 01:15:20;;;;;;;;;19.75;11.50;;;;;8.58;92.98;99895.59;3528057;40;14107;-55
2021/06/02 01:17:48;;;;;;;;;14.75;11.50;;;;;9.00;92.32;99905.97;3535631;40;14489;-53
2021/06/02 01:20:18;;;;;;;;;14.75;12.25;;;;;9.17;91.52;99898.88;3530796;40;14104;-51
2021/06/02 01:22:47;;;;;;;;;16.50;14.00;;;;;9.08;92.03;99905.53;3531810;40;14299;-55
2021/06/02 01:25:20;;;;;;;;;15.50;13.00;;;;;9.31;91.24;99906.16;3534039;40;14268;-53
2021/06/02 01:27:49;;;;;;;;;16.50;10.25;;;;;9.18;90.63;99911.31;3528347;40;11684;-54
2021/06/02 01:30:21;;;;;;;;;19.00;12.25;;;;;9.38;90.39;99900.41;3528936;40;14316;-54
2021/06/02 01:33:16;;;;;;;;;13.50;12.00;;;;;9.24;90.54;99908.28;3535554;40;10883;-54
2021/06/02 01:36:11;;;;;;;;;12.00;10.00;;;;;9.22;89.94;99902.19;3532196;40;14097;-54
2021/06/02 01:39:20;;;;;;;;;12.50;9.50;;;;;9.26;89.63;99898.38;3529035;40;14589;-51
2021/06/02 01:42:12;;;;;;;;;12.75;11.00;;;;;8.95;91.13;99900.00;3533456;40;14149;-53
2021/06/02 01:45:16;;;;;;;;;11.25;10.00;;;;;8.56;93.42;99914.44;3542938;40;14879;-52
2021/06/02 01:48:13;;;;;;;;;10.67;9.00;;;;;8.30;93.30;99902.31;3527717;40;10483;-51
2021/06/02 01:51:27;;;;;;;;;13.50;11.50;;;;;8.55;92.61;99912.69;3529539;40;10910;-54
2021/06/02 01:54:18;;;;;;;;;17.67;12.00;;;;;8.73;91.83;99907.38;3526975;40;10486;-52
2021/06/02 01:57:09;;;;;;;;;1.67;0.00;;;;;8.85;92.24;99912.13;3532257;40;10555;-49
2021/06/02 02:00:15;;;;;;;;;12.50;11.00;;;;;8.76;92.33;99912.56;3532568;40;10934;-55
2021/06/02 02:03:07;;;;;;;;;12.75;10.00;;;;;8.87;92.49;99907.53;3527661;40;10829;-54
2021/06/02 02:06:18;;;;;;;;;18.25;13.75;;;;;8.68;92.90;99907.59;3527684;40;14103;-53
2021/06/02 02:09:10;;;;;;;;;12.25;11.25;;;;;8.76;93.37;99915.25;3526907;40;10994;-54
2021/06/02 02:11:41;;;;;;;;;18.00;11.50;;;;;8.51;93.07;99910.25;3527503;40;11050;-52
2021/06/02 02:14:41;;;;;;;;;12.00;11.00;;;;;8.47;93.62;99912.19;3527920;40;10485;-50
2021/06/02 02:17:20;;;;;;;;;20.67;12.33;;;;;8.60;93.17;99914.28;3527932;40;10567;-54
2021/06/02 02:20:39;;;;;;;;;15.33;14.00;;;;;8.48;93.36;99919.31;3530462;40;11163;-53
2021/06/02 02:23:30;;;;;;;;;11.67;11.33;;;;;8.40;93.46;99924.16;3526049;40;10114;-54
2021/06/02 02:26:19;;;;;;;;;16.00;11.67;;;;;8.04;93.45;99916.94;3527824;40;10070;-55
2021/06/02 02:29:27;;;;;;;;;14.33;11.00;;;;;7.89;95.07;99929.19;3552085;40;10167;-52
2021/06/02 02:32:04;;;;;;;;;14.00;14.00;;;;;8.42;93.78;99916.91;3514218;40;10171;-53
2021/06/02 02:34:55;;;;;;;;;13.00;13.00;;;;;8.52;92.64;99914.66;3528957;40;10348;-54
2021/06/02 02:37:38;;;;;;;;;86.75;68.25;;;;;8.81;91.63;99915.88;3536489;40;9661;-50
2021/06/02 02:40:13;;;;;;;;;19.67;16.67;;;;;8.76;91.94;99920.59;3526586;40;10012;-53
2021/06/02 02:42:58;;;;;;;;;54.67;44.33;;;;;9.19;89.10;99916.59;3520729;40;10325;-53
2021/06/02 02:45:54;;;;;;;;;19.67;18.33;;;;;8.67;91.10;99916.56;3528077;40;10003;-54
2021/06/02 02:48:48;;;;;;;;;12.50;10.75;;;;;8.14;93.29;99920.03;3527166;40;10936;-54
2021/06/02 02:51:34;;;;;;;;;13.67;11.00;;;;;8.59;92.63;99920.59;3544319;40;10421;-54
2021/06/02 02:54:13;;;;;;;;;14.67;12.33;;;;;8.70;90.14;99920.91;3537841;40;10719;-56
2021/06/02 02:57:21;;;;;;;;;12.67;11.00;;;;;8.29;92.52;99921.09;3541884;40;10422;-55
2021/06/02 02:59:59;;;;;;;;;14.33;11.00;;;;;8.47;92.46;99930.94;3527265;40;10333;-54
2021/06/02 03:02:40;;;;;;;;;12.33;12.33;;;;;8.33;92.99;99920.00;3527087;40;10197;-55
2021/06/02 03:05:32;;;;;;;;;14.33;12.33;;;;;8.46;92.46;99931.88;3533397;40;10333;-54
2021/06/02 03:08:22;;;;;;;;;13.33;11.00;;;;;8.59;91.29;99933.97;3536278;40;10101;-55
2021/06/02 03:11:24;;;;;;;;;15.00;10.67;;;;;7.91;93.63;99937.16;3538461;40;10876;-54
2021/06/02 03:14:21;;;;;;;;;13.33;10.33;;;;;7.88;94.94;99942.66;3517039;40;10049;-52
2021/06/02 03:17:04;;;;;;;;;13.67;11.00;;;;;8.33;93.69;99944.94;3521106;40;10255;-56
2021/06/02 03:20:06;;;;;;;;;15.00;13.00;;;;;8.27;92.03;99942.59;3534733;40;10324;-55
2021/06/02 03:23:14;;;;;;;;;19.67;13.00;;;;;8.60;90.10;99957.09;3527073;40;10310;-54
2021/06/02 03:25:57;;;;;;;;;18.00;13.00;;;;;8.36;91.05;99954.63;3518704;40;10016;-53
2021/06/02 03:29:01;;;;;;;;;16.67;13.00;;;;;8.29;92.02;99953.19;3536013;40;10044;-55
2021/06/02 03:31:57;;;;;;;;;17.67;12.33;;;;;8.17;93.03;99953.78;3524852;40;10276;-53
2021/06/02 03:34:59;;;;;;;;;15.00;14.67;;;;;8.70;91.30;99953.91;3524077;40;9951;-54
2021/06/02 03:38:10;;;;;;;;;18.67;14.00;;;;;8.72;89.73;99945.81;3536505;40;10158;-55
2021/06/02 03:41:05;;;;;;;;;15.00;13.67;;;;;8.73;91.21;99947.53;3535482;40;10222;-54
2021/06/02 03:43:46;;;;;;;;;14.33;11.33;;;;;8.79;90.45;99957.91;3517480;40;10194;-55
2021/06/02 03:47:05;;;;;;;;;20.33;12.33;;;;;8.74;91.01;99957.28;3523962;40;10599;-56
2021/06/02 03:50:05;;;;;;;;;15.00;11.33;;;;;8.86;90.77;99956.66;3529004;40;10359;-54
2021/06/02 03:53:07;;;;;;;;;14.00;14.00;;;;;8.95;90.43;99958.91;3528140;40;10960;-55
2021/06/02 03:55:55;;;;;;;;;12.67;12.67;;;;;9.14;90.26;99966.00;3536016;40;11251;-55
2021/06/02 03:58:39;;;;;;;;;10.67;10.00;;;;;9.11;89.67;99976.84;3544392;40;10638;-54
2021/06/02 04:01:38;;;;;;;;;10.67;9.67;;;;;9.17;86.61;99980.09;3552787;40;10678;-54
2021/06/02 04:04:38;;;;;;;;;16.33;12.67;;;;;9.01;87.25;99985.38;3548428;40;10404;-52
2021/06/02 04:07:09;;;;;;;;;15.67;15.33;;;;;8.87;87.82;100003.91;3536825;40;10394;-55
2021/06/02 04:10:09;;;;;;;;;18.00;11.00;;;;;8.82;89.97;99997.94;3530438;40;10505;-56
2021/06/02 04:13:02;;;;;;;;;13.33;12.00;;;;;9.00;89.90;99994.34;3527559;40;10422;-53
2021/06/02 04:15:30;;;;;;;;;15.33;13.33;;;;;9.47;87.23;99991.97;3526046;40;10405;-55
2021/06/02 04:18:00;;;;;;;;;15.33;10.33;;;;;9.57;87.20;99987.88;3530543;40;10718;-55
2021/06/02 04:20:28;;;;;;;;;14.25;10.25;;;;;10.00;85.42;99988.25;3526719;40;10824;-54
2021/06/02 04:23:02;;;;;;;;;12.50;11.50;;;;;9.89;86.60;99986.16;3534098;40;14110;-54
2021/06/02 04:25:30;;;;;;;;;11.00;10.75;;;;;10.12;85.87;99990.28;3534131;40;14322;-55
2021/06/02 04:28:01;;;;;;;;;14.75;11.00;;;;;10.24;84.28;99983.34;3528611;40;14105;-55
2021/06/02 04:30:31;;;;;;;;;16.75;11.00;;;;;10.18;84.07;99992.63;3529425;40;14124;-54
2021/06/02 04:33:00;;;;;;;;;16.00;11.25;;;;;10.32;85.06;99999.94;3527381;40;14052;-55
2021/06/02 04:35:31;;;;;;;;;18.25;13.00;;;;;10.32;86.38;100007.97;3528155;40;14652;-56
2021/06/02 04:37:59;;;;;;;;;14.50;11.50;;;;;10.76;80.91;100016.22;3528025;40;14084;-56
2021/06/02 04:40:29;;;;;;;;;11.50;8.25;;;;;10.90;81.81;100014.56;3535362;40;14614;-49
2021/06/02 04:43:01;;;;;;;;;12.50;11.50;;;;;10.92;80.62;100023.41;3528463;40;14108;-55
2021/06/02 04:45:36;;;;;;;;;13.25;11.25;;;;;10.69;84.36;100028.28;3527562;40;14123;-55
2021/06/02 04:48:06;;;;;;;;;12.00;8.75;;;;;10.45;85.58;100019.78;3527418;40;14088;-53
2021/06/02 04:50:44;;;;;;;;;11.50;10.00;;;;;10.57;87.15;100020.06;3536724;40;14290;-53
2021/06/02 04:53:56;;;;;;;;;14.00;12.00;;;;;11.03;82.81;100023.66;3545029;40;14096;-54
2021/06/02 04:56:42;;;;;;;;;13.25;10.00;;;;;11.23;81.76;100027.00;3526560;40;14649;-56
2021/06/02 04:59:54;;;;;;;;;11.50;11.00;;;;;11.26;81.72;100035.75;3534107;40;14092;-55
2021/06/02 05:02:43;;;;;;;;;14.25;10.75;;;;;11.41;81.32;100031.28;3541780;40;14233;-55
2021/06/02 05:05:50;;;;;;;;;15.00;11.25;;;;;11.44;78.55;100036.47;3538465;40;14065;-54
2021/06/02 05:08:45;;;;;;;;;12.25;9.50;;;;;11.63;79.04;100031.72;3538008;40;14593;-53
2021/06/02 05:11:53;;;;;;;;;13.00;11.00;;;;;11.64;81.56;100036.16;3537823;40;14640;-54
2021/06/02 05:14:57;;;;;;;;;13.50;10.25;;;;;11.91;78.68;100040.84;3538084;40;14196;-54
2021/06/02 05:17:59;;;;;;;;;14.75;12.75;;;;;12.01;79.80;100041.16;3552080;40;14122;-54
2021/06/02 05:23:49;;;;;;;;;19.00;11.75;;;;;12.17;77.42;100036.53;3538100;40;14323;-53
2021/06/02 05:27:30;;;;;;;;;8.50;7.50;;;;;12.48;76.45;100040.88;3537740;40;14086;-56
2021/06/02 05:30:49;;;;;;;;;14.00;10.25;;;;;12.47;77.50;100049.88;3524283;40;14274;-56
2021/06/02 05:33:28;;;;;;;;;12.00;9.75;;;;;12.54;78.38;100044.13;3528149;40;14332;-56
2021/06/02 05:36:16;;;;;;;;;16.25;12.25;;;;;12.74;77.11;100046.38;3527994;40;14272;-56
2021/06/02 05:39:09;;;;;;;;;14.25;11.25;;;;;12.80;76.78;100039.75;3524543;40;14146;-56
2021/06/02 05:41:40;;;;;;;;;10.25;9.75;;;;;12.67;77.93;100050.47;3528380;40;14301;-57
2021/06/02 05:45:04;;;;;;;;;13.75;11.50;;;;;12.92;77.37;100047.88;3528561;40;14113;-56
2021/06/02 05:47:49;;;;;;;;;12.25;10.25;;;;;12.96;78.96;100057.50;3529496;40;14322;-56
2021/06/02 05:50:55;;;;;;;;;11.25;10.00;;;;;13.16;76.68;100052.63;3537574;40;14312;-56
2021/06/02 05:53:46;;;;;;;;;13.75;11.00;;;;;13.29;76.41;100048.16;3541315;40;14112;-57
2021/06/02 05:56:59;;;;;;;;;7.00;4.00;;;;;13.34;76.50;100046.03;3538189;40;14125;-55
2021/06/02 06:00:28;;;;;;;;;11.25;10.25;;;;;13.54;76.46;100051.94;3537984;40;14021;-59
2021/06/02 06:03:51;;;;;;;;;14.25;10.75;;;;;13.45;75.98;100045.28;3535034;40;14097;-56
2021/06/02 06:06:42;;;;;;;;;10.00;9.00;;;;;13.68;75.23;100049.13;3527902;40;14140;-55
2021/06/02 06:09:21;;;;;;;;;10.25;9.00;;;;;13.82;73.13;100051.75;3528078;40;14075;-57
2021/06/02 06:12:07;;;;;;;;;13.75;9.00;;;;;13.90;72.40;100053.94;3527507;40;14289;-54
2021/06/02 06:15:24;;;;;;;;;16.00;10.75;;;;;13.83;73.56;100052.63;3528201;40;14211;-56
2021/06/02 06:18:23;;;;;;;;;11.75;9.00;;;;;14.28;73.30;100053.91;3528649;40;14102;-53
2021/06/02 06:21:26;;;;;;;;;10.00;6.00;;;;;14.54;71.71;100053.06;3536595;40;14057;-56
2021/06/02 06:23:56;;;;;;;;;7.25;5.25;;;;;14.63;70.83;100063.19;3537715;40;14187;-56
2021/06/02 06:26:34;;;;;;;;;8.75;5.25;;;;;14.76;67.80;100060.47;3539020;40;14101;-56
2021/06/02 06:29:31;;;;;;;;;9.75;9.00;;;;;14.70;67.02;100059.94;3527412;40;14014;-57
2021/06/02 06:32:02;;;;;;;;;10.25;8.00;;;;;14.96;65.81;100070.69;3526828;40;14079;-57
2021/06/02 06:34:33;;;;;;;;;8.25;7.25;;;;;15.04;65.95;100072.84;3526835;40;14312;-56
2021/06/02 06:37:03;;;;;;;;;13.00;8.50;;;;;14.88;65.60;100067.69;3528045;40;14590;-56
2021/06/02 06:39:55;;;;;;;;;8.00;6.25;;;;;15.15;64.71;100081.00;3527308;40;14044;-56
2021/06/02 06:42:27;;;;;;;;;6.00;6.00;;;;;14.93;64.34;100079.03;3535368;40;14125;-57
2021/06/02 06:45:10;;;;;;;;;8.75;6.50;;;;;15.50;64.92;100085.63;3527178;40;14279;-56
2021/06/02 06:47:38;;;;;;;;;6.00;6.00;;;;;15.12;64.25;100083.94;3519137;40;14114;-57
2021/06/02 06:50:10;;;;;;;;;7.00;6.00;;;;;15.38;63.58;100076.59;3543929;40;14012;-57
2021/06/02 06:52:45;;;;;;;;;6.00;6.00;;;;;15.53;62.61;100088.97;3543716;40;14080;-57
2021/06/02 06:55:13;;;;;;;;;5.00;5.00;;;;;15.68;63.08;100089.63;3535524;40;14180;-57
2021/06/02 06:57:43;;;;;;;;;9.25;7.00;;;;;15.57;63.26;100089.59;3551513;40;14177;-57
2021/06/02 07:00:12;;;;;;;;;6.25;5.75;;;;;15.61;64.60;100093.78;3535461;40;13964;-56
2021/06/02 07:02:44;;;;;;;;;6.25;6.00;;;;;15.35;62.62;100088.50;3533681;40;14016;-55
2021/06/02 07:05:13;;;;;;;;;6.50;6.00;;;;;15.32;62.24;100087.84;3526900;40;14014;-56
2021/06/02 07:07:43;;;;;;;;;9.00;7.00;;;;;15.85;63.58;100091.09;3525826;40;14065;-53
2021/06/02 07:10:14;;;;;;;;;6.00;6.00;;;;;15.87;60.54;100088.25;3526697;40;14095;-55
2021/06/02 07:12:45;;;;;;;;;9.50;7.00;;;;;15.83;61.33;100086.78;3535904;40;14563;-54
2021/06/02 07:15:16;;;;;;;;;7.75;7.00;;;;;16.17;63.24;100085.88;3536476;40;14533;-55
2021/06/02 07:17:49;;;;;;;;;7.50;7.50;;;;;16.23;60.63;100089.94;3534040;40;13983;-56
2021/06/02 07:20:22;;;;;;;;;9.50;7.00;;;;;16.32;60.34;100089.19;3526316;40;14046;-57
2021/06/02 07:22:52;;;;;;;;;8.00;8.00;;;;;16.67;61.33;100089.09;3526568;40;13999;-56
2021/06/02 07:25:25;;;;;;;;;9.25;7.75;;;;;16.46;61.53;100096.25;3531135;40;14502;-56
2021/06/02 07:28:00;;;;;;;;;7.00;6.25;;;;;16.29;60.98;100094.88;3535260;40;14078;-56
2021/06/02 07:30:28;;;;;;;;;9.25;9.25;;;;;17.09;62.20;100093.91;3528369;40;14030;-57
2021/06/02 07:32:56;;;;;;;;;7.00;7.00;;;;;17.06;60.45;100099.56;3533503;40;14203;-56
2021/06/02 07:35:25;;;;;;;;;7.25;6.00;;;;;17.33;58.83;100096.44;3532592;40;13988;-58
2021/06/02 07:37:53;;;;;;;;;9.00;8.00;;;;;16.95;58.81;100095.03;3535825;40;13968;-56
2021/06/02 07:40:20;;;;;;;;;8.50;7.75;;;;;17.33;60.06;100096.44;3530727;40;14070;-57
2021/06/02 07:42:48;;;;;;;;;9.00;8.50;;;;;18.13;58.81;100098.69;3536013;40;14200;-56
2021/06/02 07:45:17;;;;;;;;;8.00;7.00;;;;;17.76;59.40;100098.25;3535893;40;14528;-56
2021/06/02 07:47:45;;;;;;;;;9.25;8.00;;;;;16.97;57.32;100093.06;3528034;40;13327;-57
2021/06/02 07:50:13;;;;;;;;;8.75;8.50;;;;;18.04;58.11;100099.50;3536437;40;13320;-58
2021/06/02 07:52:41;;;;;;;;;8.50;8.00;;;;;18.69;56.92;100102.00;3536149;40;14029;-58
2021/06/02 07:55:09;;;;;;;;;9.75;7.25;;;;;18.78;55.48;100093.94;3521879;40;13537;-58
2021/06/02 07:57:36;;;;;;;;;10.75;9.25;;;;;19.25;55.01;100106.97;3526281;40;13036;-58
2021/06/02 08:00:06;;;;;;;;;11.25;8.00;;;;;19.08;54.16;100098.47;3526206;40;12820;-57
2021/06/02 08:02:33;;;;;;;;;8.25;7.50;;;;;19.19;51.91;100104.78;3527791;40;12152;-56
2021/06/02 08:05:01;;;;;;;;;7.25;6.00;;;;;18.88;54.21;100102.16;3531042;40;12078;-56
2021/06/02 08:07:43;;;;;;;;;8.00;8.00;;;;;19.07;51.75;100102.19;3530609;40;11995;-57
2021/06/02 08:10:17;;;;;;;;;9.50;9.50;;;;;19.20;52.84;100101.94;3528956;40;12106;-56
2021/06/02 08:12:47;;;;;;;;;7.00;7.00;;;;;19.85;51.06;100107.78;3527712;40;12366;-56
2021/06/02 08:15:16;;;;;;;;;9.00;8.00;;;;;19.12;53.07;100109.09;3534655;40;12135;-58
2021/06/02 08:17:44;;;;;;;;;9.50;8.50;;;;;18.99;54.69;100106.63;3537764;40;12118;-57
2021/06/02 08:20:14;;;;;;;;;7.00;7.00;;;;;19.70;51.76;100114.66;3536520;40;12784;-56
2021/06/02 08:22:42;;;;;;;;;7.50;7.50;;;;;19.06;53.98;100116.81;3537754;40;12285;-56
2021/06/02 08:25:13;;;;;;;;;8.25;7.00;;;;;18.40;54.19;100111.78;3537802;40;11880;-57
2021/06/02 08:27:42;;;;;;;;;9.50;8.00;;;;;19.27;53.30;100111.28;3530109;40;12129;-57
2021/06/02 08:30:11;;;;;;;;;6.50;6.25;;;;;20.11;49.76;100113.47;3527404;40;12764;-57
2021/06/02 08:32:40;;;;;;;;;10.75;8.25;;;;;20.51;50.88;100117.88;3526638;40;12010;-57
2021/06/02 08:35:10;;;;;;;;;10.25;8.00;;;;;20.04;52.03;100116.97;3527822;40;12172;-57
2021/06/02 08:37:38;;;;;;;;;7.00;7.00;;;;;21.06;49.09;100111.63;3527760;40;11905;-57
2021/06/02 08:40:07;;;;;;;;;8.75;7.00;;;;;20.05;48.93;100100.44;3527516;40;11853;-57
2021/06/02 08:42:34;;;;;;;;;8.00;6.75;;;;;20.09;48.46;100103.72;3527351;40;11173;-57
2021/06/02 08:45:03;;;;;;;;;9.75;7.25;;;;;20.58;48.98;100115.44;3527506;40;11716;-57
2021/06/02 08:47:30;;;;;;;;;8.00;8.00;;;;;21.10;45.17;100107.59;3527442;40;11667;-51
2021/06/02 08:49:58;;;;;;;;;7.25;7.25;;;;;20.92;45.47;100112.16;3527766;40;11596;-54
2021/06/02 08:52:26;;;;;;;;;7.50;7.00;;;;;20.25;47.64;100108.59;3527610;40;11258;-57
2021/06/02 08:54:55;;;;;;;;;8.00;7.00;;;;;20.19;44.78;100112.75;3542839;40;11691;-52
2021/06/02 08:57:23;;;;;;;;;9.25;7.00;;;;;20.04;43.97;100100.59;3527331;40;11702;-55
2021/06/02 08:59:50;;;;;;;;;12.00;9.00;;;;;20.68;43.35;100102.63;3528256;40;11691;-55
2021/06/02 09:02:17;;;;;;;;;7.50;7.50;;;;;19.46;45.37;100096.84;3528614;40;11624;-54
2021/06/02 09:04:45;;;;;;;;;9.75;9.00;;;;;21.55;43.49;100098.59;3528295;40;11614;-54
2021/06/02 09:07:15;;;;;;;;;10.75;8.50;;;;;21.52;44.59;100098.91;3528680;40;11470;-55
2021/06/02 09:09:44;;;;;;;;;8.00;8.00;;;;;21.72;42.66;100109.66;3528378;40;11199;-52
2021/06/02 09:12:15;;;;;;;;;12.25;7.50;;;;;20.85;43.82;100105.56;3528257;40;11183;-55
2021/06/02 09:14:43;;;;;;;;;9.00;7.75;;;;;20.32;43.86;100098.81;3528353;40;11034;-56
2021/06/02 09:17:14;;;;;;;;;7.00;7.00;;;;;20.87;43.35;100103.56;3534262;40;12008;-54
2021/06/02 09:19:47;;;;;;;;;9.25;9.25;;;;;21.37;42.68;100090.34;3535818;40;12259;-55
2021/06/02 09:22:17;;;;;;;;;28.50;27.50;;;;;21.60;41.72;100092.66;3538342;40;11754;-56
2021/06/02 09:24:58;;;;;;;;;8.25;8.00;;;;;21.18;42.68;100090.47;3537691;40;13423;-54
2021/06/02 09:27:51;;;;;;;;;6.50;5.50;;;;;21.34;39.77;100089.78;3553692;40;11367;-55
2021/06/02 09:30:39;;;;;;;;;9.50;7.00;;;;;21.79;38.79;100089.75;3530552;40;11057;-52
2021/06/02 09:33:08;;;;;;;;;6.25;6.25;;;;;21.29;39.88;100092.13;3526912;40;10962;-52
2021/06/02 09:35:38;;;;;;;;;10.00;8.00;;;;;21.50;40.82;100091.88;3528738;40;10660;-52
2021/06/02 09:38:07;;;;;;;;;9.25;8.25;;;;;21.61;40.67;100086.16;3527940;40;11183;-53
2021/06/02 09:40:38;;;;;;;;;10.00;7.00;;;;;20.51;40.57;100096.06;3528437;40;10962;-54
2021/06/02 09:43:07;;;;;;;;;6.00;4.25;;;;;21.34;41.01;100089.78;3528042;40;11056;-55
2021/06/02 09:45:35;;;;;;;;;9.00;8.00;;;;;21.69;38.97;100087.09;3528496;40;11302;-55
2021/06/02 09:48:05;;;;;;;;;7.75;7.00;;;;;20.90;39.46;100092.34;3528408;40;11399;-54
2021/06/02 09:50:37;;;;;;;;;5.25;5.25;;;;;20.95;37.56;100090.88;3543622;40;11703;-54
2021/06/02 09:53:10;;;;;;;;;8.00;7.00;;;;;21.21;37.52;100099.19;3528372;40;11038;-57
2021/06/02 09:55:40;;;;;;;;;10.75;6.75;;;;;21.73;36.89;100090.41;3528496;40;11242;-55
2021/06/02 09:58:09;;;;;;;;;7.25;6.50;;;;;21.95;37.31;100088.19;3535218;40;11219;-55
2021/06/02 10:01:00;;;;;;;;;7.25;7.25;;;;;21.19;39.94;100087.56;3528619;40;10836;-56
2021/06/02 10:03:32;;;;;;;;;4.00;4.00;;;;;20.59;39.00;100092.63;3528010;40;11087;-53
2021/06/02 10:06:00;;;;;;;;;8.50;7.50;;;;;22.23;38.65;100083.50;3527809;40;10931;-55
2021/06/02 10:08:29;;;;;;;;;9.50;7.75;;;;;22.49;38.81;100081.63;3527973;40;10910;-56
2021/06/02 10:11:11;;;;;;;;;10.00;8.75;;;;;21.76;38.34;100078.28;3527836;40;10860;-56
2021/06/02 10:13:39;;;;;;;;;5.75;4.75;;;;;22.37;37.14;100077.41;3528329;40;10655;-57
2021/06/02 10:16:09;;;;;;;;;8.00;7.00;;;;;21.82;36.72;100072.19;3527868;40;10623;-57
2021/06/02 10:18:39;;;;;;;;;7.00;6.00;;;;;21.26;39.12;100066.81;3528033;40;11057;-55
2021/06/02 10:21:13;;;;;;;;;7.25;6.50;;;;;22.54;35.66;100071.03;3527741;40;10621;-56
2021/06/02 10:23:44;;;;;;;;;6.00;6.00;;;;;22.91;38.64;100069.00;3528314;40;10373;-57
2021/06/02 10:26:15;;;;;;;;;9.67;6.00;;;;;20.92;38.64;100068.47;3527647;40;10093;-55
2021/06/02 10:28:46;;;;;;;;;8.00;8.00;;;;;20.14;39.34;100064.16;3527886;40;10440;-56
2021/06/02 10:31:15;;;;;;;;;6.00;4.00;;;;;20.17;39.86;100065.72;3528143;40;11184;-56
2021/06/02 10:33:43;;;;;;;;;7.00;6.50;;;;;20.24;40.42;100063.25;3527628;40;11183;-55
2021/06/02 10:36:11;;;;;;;;;9.75;6.00;;;;;19.68;41.82;100070.34;3527724;40;11895;-56
2021/06/02 10:39:01;;;;;;;;;6.75;6.00;;;;;20.00;40.09;100066.47;3526967;40;12023;-54
2021/06/02 10:41:41;;;;;;;;;10.00;8.25;;;;;20.61;41.39;100066.03;3542939;40;12181;-53
2021/06/02 10:44:12;;;;;;;;;7.25;7.25;;;;;20.68;41.10;100064.41;3526838;40;12316;-52
2021/06/02 10:46:45;;;;;;;;;8.00;7.25;;;;;21.74;39.48;100069.38;3519132;40;11761;-56
2021/06/02 10:49:13;;;;;;;;;6.00;6.00;;;;;21.46;37.66;100069.47;3527529;40;11929;-56
2021/06/02 10:51:43;;;;;;;;;6.75;6.75;;;;;22.36;37.52;100075.72;3527907;40;11374;-56
2021/06/02 10:54:16;;;;;;;;;5.50;4.25;;;;;22.37;35.89;100071.94;3527677;40;11399;-56
2021/06/02 10:56:59;;;;;;;;;7.50;6.00;;;;;21.60;37.37;100076.25;3527571;40;11033;-55
2021/06/02 10:59:35;;;;;;;;;6.25;6.00;;;;;22.53;36.23;100079.41;3528144;40;11098;-55
2021/06/02 11:02:29;;;;;;;;;8.50;7.00;;;;;22.21;34.49;100072.69;3527628;40;10634;-54
2021/06/02 11:04:56;;;;;;;;;7.00;6.33;;;;;22.83;34.20;100080.78;3543071;40;10559;-55
2021/06/02 11:07:27;;;;;;;;;8.33;6.00;;;;;21.98;35.36;100072.31;3527669;40;9991;-55
2021/06/02 11:10:14;;;;;;;;;5.67;4.67;;;;;23.15;34.70;100081.97;3527916;40;10093;-60
2021/06/02 11:12:48;;;;;;;;;9.33;6.67;;;;;22.84;35.06;100068.78;3527883;40;10384;-60
2021/06/02 11:15:30;;;;;;;;;6.50;6.50;;;;;22.07;37.48;100073.25;3529411;40;10280;-59
2021/06/02 11:18:22;;;;;;;;;7.00;7.00;;;;;21.91;38.33;100065.78;3532301;40;10487;-59
2021/06/02 11:20:54;;;;;;;;;5.50;5.50;;;;;21.10;39.05;100072.13;3535355;40;10641;-60
2021/06/02 11:23:32;;;;;;;;;8.25;6.00;;;;;20.76;39.84;100069.13;3533348;40;10644;-58
2021/06/02 11:26:24;;;;;;;;;13.00;8.00;;;;;21.75;36.43;100077.44;3527025;40;11636;-58
2021/06/02 11:28:53;;;;;;;;;7.00;5.75;;;;;21.40;37.88;100068.19;3542119;40;11440;-60
2021/06/02 11:31:30;;;;;;;;;8.00;7.50;;;;;21.18;37.32;100068.63;3526450;40;11508;-59
2021/06/02 11:34:29;;;;;;;;;9.50;5.50;;;;;20.97;39.12;100066.16;3526867;40;11551;-60
2021/06/02 11:37:13;;;;;;;;;6.00;6.00;;;;;20.91;38.86;100072.22;3526673;40;11963;-59
2021/06/02 11:39:41;;;;;;;;;7.00;7.00;;;;;21.01;41.64;100064.81;3525762;40;11251;-60
2021/06/02 11:42:30;;;;;;;;;7.75;5.50;;;;;20.70;40.74;100064.28;3526132;40;11542;-59
2021/06/02 11:45:05;;;;;;;;;7.25;7.25;;;;;20.60;40.27;100069.78;3526956;40;11370;-60
2021/06/02 11:47:35;;;;;;;;;6.00;6.00;;;;;20.62;40.97;100073.22;3526489;40;11465;-60
2021/06/02 11:50:14;;;;;;;;;8.00;8.00;;;;;20.76;40.52;100071.88;3533776;40;11272;-60
2021/06/02 11:52:44;;;;;;;;;9.00;7.00;;;;;21.01;37.56;100078.47;3526122;40;11579;-60
2021/06/02 11:55:16;;;;;;;;;7.50;6.00;;;;;20.90;36.66;100076.81;3526691;40;11429;-59
2021/06/02 11:57:50;;;;;;;;;5.00;5.00;;;;;21.10;38.22;100071.25;3525103;40;11946;-60
2021/06/02 12:00:23;;;;;;;;;6.50;5.50;;;;;21.44;37.61;100068.75;3517740;40;10882;-60
2021/06/02 12:02:56;;;;;;;;;6.00;5.00;;;;;21.82;38.25;100072.19;3526199;40;11357;-61
2021/06/02 12:05:29;;;;;;;;;7.50;6.50;;;;;21.99;35.84;100068.59;3527340;40;10876;-61
2021/06/02 12:08:06;;;;;;;;;4.50;4.50;;;;;23.16;33.20;100065.34;3526357;40;10788;-61
2021/06/02 12:10:43;;;;;;;;;7.33;5.67;;;;;22.47;35.07;100064.50;3531670;40;10462;-60
2021/06/02 12:13:28;;;;;;;;;7.33;7.00;;;;;21.50;36.36;100056.34;3524430;40;10357;-60
2021/06/02 12:16:11;;;;;;;;;11.25;5.00;;;;;21.33;37.70;100060.72;3526778;40;10821;-62
2021/06/02 12:18:41;;;;;;;;;7.75;6.00;;;;;21.43;39.42;100065.19;3525625;40;11334;-60
2021/06/02 12:21:16;;;;;;;;;6.75;6.25;;;;;21.24;38.02;100063.38;3526356;40;10777;-60